Tetlin, Alaska
Current Conditions -  °F | °C
As of 1:53 AM on Friday 31 Oct 2014 (Local Time) from PAOR Reporting Station
Light Snow Light Snow  
Wind Chill: -2°   Ceiling: 2900
Heat Index: 12°   Visibility: 7mi
Dew Point:   Wind: 12mph
Humidity: 80%   Direction: 330°NNW
Pressure: 29.34"   Gusts: 20mph
Location:  63.13°N, 142.52°W
Report Text: PAOR 310953Z 33010G17KT 7SM -SN BKN029 OVC060 M11/M14 A2934 RMK AO2 SLP980 T11111139
Loading
Personal Weather Stations






























Interactive Weather Map
Tropical Storm Tracking
New forecast layout! Learn more

10-Day Weather Forecast

Advertisements
Track Severe Weather on mobile